Athens, Greece
Current Conditions -  °F | °C
As of 8:50 PM on Monday 20 Oct 2014 (Local Time) from LGEL Reporting Station
Clear Clear  
Wind Chill: 63°   Ceiling: Unl
Heat Index: 63°   Visibility: 6mi
Dew Point: 41°   Wind: 5mph
Humidity: 45%   Direction: 320°NW
Pressure: 30.06"   Gusts: NA
Location:  37.98°N, 23.73°E
Report Text: LGEL 201750Z 32004KT CAVOK 17/05 Q1018
Loading
Personal Weather Stations






























Interactive Weather Map
Tropical Storm Tracking
New forecast layout! Learn more

10-Day Weather Forecast

Advertisements
Track Severe Weather on mobile